Terminal Aerodrome Forecast
Issued by NWS Blacksburg, VA

Current Version | Previous Version | Graphics & Text | Print | Product List | Glossary On
Versions: 1 2 3 4 5 6 7 8 9 10 11 12 13 14 15 16 17 18
000
FTUS41 KRNK 251130
TAFBLF
TAF
KBLF 251130Z 2512/2612 25006KT P6SM SCT025 BKN150
     FM251400 26007KT P6SM BKN035 OVC080
      TEMPO 2514/2518 P6SM -SHRA
     FM251800 27008KT P6SM BKN040 BKN250
     FM260300 28005KT P6SM BKN035=

USA.gov is the U.S. government's official web portal to all federal, state and local government web resources and services.